Time;durP1;ratioP1;P1;durP2;ratioP2;P2;SDS_P1;SDS_P2;PMS_P1;PMS_P2;Temp;Humidity;BMP_temperature;BMP_pressure;BME280_temperature;BME280_humidity;BME280_pressure;Samples;Min_cycle;Max_cycle;Signal;HPM_P1;HPM_P2
2021/06/10 00:03:44;;;;;;;18.40;13.57;;;;;;;18.49;64.69;100879.28;8742099;33;20239;-77
2021/06/10 00:08:47;;;;;;;21.15;15.63;;;;;;;18.42;64.83;100875.50;8738526;33;20239;-77
2021/06/10 00:13:50;;;;;;;20.95;15.45;;;;;;;18.48;64.61;100883.00;8737384;33;20255;-77
2021/06/10 00:18:56;;;;;;;20.88;15.55;;;;;;;18.33;64.87;100880.06;8736791;33;20236;-77
2021/06/10 00:23:59;;;;;;;20.35;15.48;;;;;;;18.25;65.09;100873.72;8737389;33;20235;-77
2021/06/10 00:29:02;;;;;;;18.35;13.50;;;;;;;18.26;65.07;100873.56;8716343;33;20270;-77
2021/06/10 00:34:06;;;;;;;19.80;14.02;;;;;;;18.24;65.02;100872.00;8741434;33;20285;-77
2021/06/10 00:39:09;;;;;;;20.60;14.73;;;;;;;18.26;65.01;100876.25;8737109;33;20227;-77
2021/06/10 00:44:12;;;;;;;19.13;14.27;;;;;;;18.10;65.24;100878.91;8736490;33;20262;-77
2021/06/10 00:49:16;;;;;;;21.50;14.68;;;;;;;18.05;65.36;100873.97;8736554;33;20767;-77
2021/06/10 00:54:19;;;;;;;21.20;15.10;;;;;;;17.77;66.15;100877.81;8736660;33;20234;-77
2021/06/10 00:59:21;;;;;;;20.80;15.10;;;;;;;17.66;66.25;100873.50;8735936;33;20629;-77
2021/06/10 01:04:26;;;;;;;21.17;15.05;;;;;;;17.55;66.52;100879.19;8735428;33;20224;-77
2021/06/10 01:09:37;;;;;;;17.90;14.43;;;;;;;17.46;66.98;100881.00;8711370;33;20311;-77
2021/06/10 01:14:48;;;;;;;23.58;15.43;;;;;;;17.36;67.29;100883.81;8737753;33;20259;-77
2021/06/10 01:20:05;;;;;;;20.55;15.70;;;;;;;17.36;67.52;100869.38;8741101;33;20231;-77
2021/06/10 01:25:16;;;;;;;21.20;15.60;;;;;;;17.47;67.08;100883.56;8714821;33;20234;-77
2021/06/10 01:30:25;;;;;;;21.45;15.65;;;;;;;16.99;68.91;100881.22;8739631;33;20220;-77
2021/06/10 01:35:35;;;;;;;20.25;16.20;;;;;;;17.01;68.98;100877.34;8737857;33;20302;-77
2021/06/10 01:40:40;;;;;;;21.35;16.52;;;;;;;17.06;68.65;100878.72;8737757;33;20227;-77
2021/06/10 01:45:48;;;;;;;21.88;17.10;;;;;;;16.89;69.13;100875.84;8737922;33;20235;-77
2021/06/10 01:50:55;;;;;;;21.42;16.08;;;;;;;16.63;70.56;100858.63;8713396;33;20235;-77
2021/06/10 01:56:00;;;;;;;19.48;16.13;;;;;;;16.68;69.90;100856.31;8736195;33;20270;-77
2021/06/10 02:01:06;;;;;;;24.02;17.40;;;;;;;16.25;71.13;100865.94;8736820;33;20270;-77
2021/06/10 02:06:10;;;;;;;24.85;18.15;;;;;;;16.42;71.19;100850.75;8737798;33;20615;-77
2021/06/10 02:11:13;;;;;;;25.15;17.27;;;;;;;16.76;69.96;100859.13;8755042;33;20239;-76
2021/06/10 02:16:18;;;;;;;23.90;17.95;;;;;;;16.93;68.81;100844.72;8754881;33;20232;-77
2021/06/10 02:21:21;;;;;;;26.13;19.95;;;;;;;16.57;69.08;100847.38;8758307;33;20228;-77
2021/06/10 02:26:24;;;;;;;25.00;18.38;;;;;;;16.47;69.54;100849.28;8754552;33;20226;-77
2021/06/10 02:31:32;;;;;;;28.73;18.10;;;;;;;16.46;69.73;100839.47;8754178;33;20230;-77
2021/06/10 02:36:40;;;;;;;23.95;18.50;;;;;;;16.43;70.07;100839.78;8731105;33;20331;-77
2021/06/10 02:41:46;;;;;;;26.58;17.63;;;;;;;16.61;69.78;100847.94;8752871;33;20239;-77
2021/06/10 02:46:51;;;;;;;27.58;17.38;;;;;;;16.87;68.54;100845.34;8749758;33;20228;-76
2021/06/10 02:51:54;;;;;;;23.38;17.40;;;;;;;16.93;67.83;100849.28;8748771;33;20232;-77
2021/06/10 02:57:00;;;;;;;27.73;19.67;;;;;;;16.48;68.46;100848.31;8751404;33;20244;-77
2021/06/10 03:02:05;;;;;;;28.30;20.40;;;;;;;16.24;69.79;100853.41;8753668;33;20425;-77
2021/06/10 03:07:09;;;;;;;27.73;19.55;;;;;;;16.06;70.22;100856.03;8753076;33;20246;-77
2021/06/10 03:12:16;;;;;;;28.80;21.05;;;;;;;15.97;70.46;100855.06;8753687;33;20231;-77
2021/06/10 03:17:20;;;;;;;29.60;19.88;;;;;;;16.14;70.09;100853.44;8750572;33;20262;-77
2021/06/10 03:22:23;;;;;;;27.75;19.30;;;;;;;16.28;69.60;100846.69;8739878;33;20230;-77
2021/06/10 03:27:26;;;;;;;28.20;19.80;;;;;;;16.25;69.44;100855.94;8740555;33;20250;-77
2021/06/10 03:32:31;;;;;;;32.15;19.67;;;;;;;16.15;70.31;100847.88;8742809;33;21500;-77
2021/06/10 03:37:35;;;;;;;28.13;19.90;;;;;;;16.27;69.77;100845.84;8742750;33;20263;-77
2021/06/10 03:42:38;;;;;;;29.15;20.65;;;;;;;16.49;69.34;100849.16;8742078;33;20243;-77
2021/06/10 03:47:44;;;;;;;29.30;20.23;;;;;;;16.64;68.51;100849.47;8742893;33;21424;-78
2021/06/10 03:52:49;;;;;;;28.77;20.33;;;;;;;16.84;68.10;100851.06;8743341;33;20643;-77
2021/06/10 03:57:51;;;;;;;27.33;19.08;;;;;;;16.98;67.74;100852.38;8743305;33;20239;-77
2021/06/10 04:02:58;;;;;;;26.90;19.25;;;;;;;17.20;66.80;100851.09;8743403;33;20267;-77
2021/06/10 04:08:01;;;;;;;32.13;20.70;;;;;;;17.33;66.33;100845.25;8742211;33;20224;-77
2021/06/10 04:13:04;;;;;;;27.58;20.25;;;;;;;17.32;66.27;100847.13;8744204;33;20768;-77
2021/06/10 04:18:08;;;;;;;28.13;20.45;;;;;;;17.25;66.47;100843.31;8738804;33;20639;-77
2021/06/10 04:23:11;;;;;;;30.40;21.35;;;;;;;17.24;66.46;100833.47;8713777;33;20232;-77
2021/06/10 04:28:13;;;;;;;30.13;22.52;;;;;;;17.26;66.31;100845.03;8739353;33;20215;-75
2021/06/10 04:33:17;;;;;;;35.30;21.92;;;;;;;17.13;66.78;100845.44;8724272;33;20251;-75
2021/06/10 04:38:20;;;;;;;37.15;23.02;;;;;;;17.18;66.93;100845.81;8688788;33;20228;-75
2021/06/10 04:43:23;;;;;;;32.67;22.52;;;;;;;17.12;67.16;100853.72;8681797;34;20247;-75
2021/06/10 04:48:28;;;;;;;32.08;21.35;;;;;;;17.31;67.56;100850.00;8680969;34;20233;-75
2021/06/10 04:53:30;;;;;;;33.65;21.48;;;;;;;17.47;67.08;100853.69;8680401;34;20272;-75
2021/06/10 04:58:33;;;;;;;34.35;22.63;;;;;;;17.49;67.36;100861.66;8680473;34;20229;-75
2021/06/10 05:03:37;;;;;;;31.17;21.45;;;;;;;17.62;67.24;100862.13;8680383;34;20232;-75
2021/06/10 05:08:40;;;;;;;28.45;19.77;;;;;;;17.65;66.87;100860.94;8679714;34;20220;-75
2021/06/10 05:13:42;;;;;;;31.95;19.95;;;;;;;17.50;67.68;100870.66;8680252;34;20749;-75
2021/06/10 05:18:47;;;;;;;28.73;19.80;;;;;;;17.60;67.40;100866.00;8678815;34;20319;-75
2021/06/10 05:23:49;;;;;;;16.00;12.32;;;;;;;17.73;67.67;100874.59;8679482;34;20268;-75
2021/06/10 05:28:52;;;;;;;15.80;11.90;;;;;;;17.86;67.52;100875.00;8680190;34;20319;-75
2021/06/10 05:33:56;;;;;;;27.55;18.60;;;;;;;17.88;67.30;100872.13;8679431;34;20334;-75
2021/06/10 05:38:58;;;;;;;19.77;13.95;;;;;;;18.07;67.08;100871.06;8679914;34;20240;-74
2021/06/10 05:44:01;;;;;;;26.80;16.85;;;;;;;18.17;66.97;100885.41;8679348;34;20266;-75
2021/06/10 05:49:05;;;;;;;19.60;14.02;;;;;;;18.24;67.16;100885.59;8678778;34;20271;-75
2021/06/10 05:54:08;;;;;;;21.35;15.40;;;;;;;18.42;67.00;100874.66;8678439;34;20711;-76
2021/06/10 05:59:11;;;;;;;30.33;19.27;;;;;;;18.49;66.44;100876.56;8655097;34;20928;-75
2021/06/10 06:04:15;;;;;;;25.45;18.13;;;;;;;18.70;66.51;100884.25;8678914;34;21402;-75
2021/06/10 06:09:17;;;;;;;29.90;20.63;;;;;;;18.91;66.17;100891.16;8679354;34;20224;-75
2021/06/10 06:14:25;;;;;;;30.92;21.95;;;;;;;19.12;65.36;100886.09;8678175;34;20231;-75
2021/06/10 06:19:29;;;;;;;25.88;16.42;;;;;;;19.26;65.08;100900.06;8687438;33;20251;-75
2021/06/10 06:24:32;;;;;;;32.65;21.95;;;;;;;19.45;65.01;100897.00;8735231;33;20220;-75
2021/06/10 06:29:35;;;;;;;30.02;20.85;;;;;;;19.58;64.43;100902.84;8754286;33;20212;-75
2021/06/10 06:34:39;;;;;;;34.17;23.08;;;;;;;19.65;65.34;100908.44;8710735;33;20635;-74
2021/06/10 06:39:42;;;;;;;33.75;23.80;;;;;;;19.74;63.61;100901.94;8727583;33;20223;-75
2021/06/10 06:44:44;;;;;;;33.67;24.30;;;;;;;19.72;63.79;100911.31;8716184;33;21978;-75
2021/06/10 06:49:48;;;;;;;34.53;24.50;;;;;;;19.84;63.32;100912.69;8741327;33;20837;-75
2021/06/10 06:54:51;;;;;;;37.97;26.58;;;;;;;19.92;61.48;100926.31;8715520;33;20231;-75
2021/06/10 06:59:54;;;;;;;42.03;26.55;;;;;;;20.12;62.48;100911.25;8740201;33;20220;-75
2021/06/10 07:04:58;;;;;;;37.85;26.55;;;;;;;20.34;60.05;100917.88;8740267;33;20327;-75
2021/06/10 07:10:00;;;;;;;38.13;26.20;;;;;;;20.78;58.75;100919.22;8740957;33;20277;-75
2021/06/10 07:15:04;;;;;;;36.13;25.70;;;;;;;21.36;57.97;100928.78;8739260;33;20745;-75
2021/06/10 07:20:10;;;;;;;33.13;24.23;;;;;;;21.35;56.26;100926.25;8738786;33;20227;-75
2021/06/10 07:25:17;;;;;;;33.30;23.90;;;;;;;21.33;57.33;100937.34;8738540;33;20737;-75
2021/06/10 07:30:21;;;;;;;34.42;24.17;;;;;;;21.47;56.21;100935.72;8689988;33;20957;-75
2021/06/10 07:35:25;;;;;;;28.45;19.48;;;;;;;21.69;52.90;100939.44;8717565;33;20227;-76
2021/06/10 07:40:29;;;;;;;19.48;15.48;;;;;;;21.73;51.86;100940.81;8737844;33;20916;-76
2021/06/10 07:45:35;;;;;;;21.52;16.33;;;;;;;21.70;50.14;100937.59;8737220;33;20716;-75
2021/06/10 07:50:39;;;;;;;20.25;14.27;;;;;;;21.88;49.34;100936.22;8738273;33;20262;-76
2021/06/10 07:55:42;;;;;;;17.30;11.60;;;;;;;22.08;47.51;100944.78;8738315;33;21452;-76
2021/06/10 08:00:44;;;;;;;14.02;10.35;;;;;;;22.42;45.13;100946.09;8738100;33;20223;-75
2021/06/10 08:05:49;;;;;;;14.18;11.23;;;;;;;22.13;45.38;100951.56;8737191;33;21847;-74
2021/06/10 08:10:53;;;;;;;12.80;9.15;;;;;;;22.70;45.67;100940.81;8738115;33;20759;-74
2021/06/10 08:15:56;;;;;;;15.95;11.60;;;;;;;23.04;44.50;100949.44;8737701;33;20646;-74
2021/06/10 08:21:02;;;;;;;13.57;10.30;;;;;;;23.12;43.67;100944.75;8737422;33;20439;-75
2021/06/10 08:26:06;;;;;;;12.55;10.48;;;;;;;23.91;41.79;100941.09;8736572;33;20266;-75
2021/06/10 08:31:09;;;;;;;11.60;9.50;;;;;;;24.36;41.83;100938.88;8736778;33;20226;-74
2021/06/10 08:36:16;;;;;;;9.35;7.30;;;;;;;24.07;41.25;100937.19;8736686;33;20227;-75
2021/06/10 08:41:19;;;;;;;11.25;7.38;;;;;;;24.01;41.35;100938.00;8737000;33;20624;-75
2021/06/10 08:46:23;;;;;;;8.18;6.38;;;;;;;23.65;39.66;100939.78;8737138;33;20642;-74
2021/06/10 08:51:28;;;;;;;10.20;8.00;;;;;;;23.13;41.62;100943.69;8736271;33;20236;-75
2021/06/10 08:56:32;;;;;;;7.40;6.20;;;;;;;22.43;42.01;100944.22;8736566;33;20251;-75
2021/06/10 09:01:35;;;;;;;9.25;6.10;;;;;;;23.76;42.16;100938.44;8736941;33;20286;-74
2021/06/10 09:06:52;;;;;;;10.40;7.28;;;;;;;23.41;41.87;100949.25;8736589;33;20227;-74
2021/06/10 09:11:56;;;;;;;8.57;7.68;;;;;;;24.02;41.49;100947.91;8736468;33;20234;-74
2021/06/10 09:17:03;;;;;;;9.80;8.40;;;;;;;23.69;42.71;100953.09;8736287;33;20324;-75
2021/06/10 09:22:07;;;;;;;10.05;8.23;;;;;;;24.11;42.74;100952.22;8739117;33;20231;-75
2021/06/10 09:27:12;;;;;;;10.68;8.40;;;;;;;24.19;41.46;100953.94;8738214;33;20228;-75
2021/06/10 09:32:18;;;;;;;8.63;7.13;;;;;;;24.28;41.79;100950.03;8736005;33;20251;-76
2021/06/10 09:37:33;;;;;;;11.50;8.18;;;;;;;23.84;42.16;100951.19;8735714;33;20290;-75
2021/06/10 09:42:38;;;;;;;9.43;8.38;;;;;;;25.12;40.07;100943.47;8732779;33;20232;-75
2021/06/10 09:47:44;;;;;;;9.63;7.13;;;;;;;25.38;39.87;100959.19;8735259;33;20755;-75
2021/06/10 09:52:52;;;;;;;9.40;7.50;;;;;;;24.81;40.82;100968.72;8735576;33;20234;-75
2021/06/10 09:57:55;;;;;;;7.38;5.97;;;;;;;24.46;40.08;100955.84;8710551;33;20236;-75
2021/06/10 10:02:58;;;;;;;11.32;8.40;;;;;;;24.23;40.75;100958.00;8735714;33;20232;-75
2021/06/10 10:08:02;;;;;;;10.52;6.78;;;;;;;24.44;41.55;100959.88;8742501;33;20250;-75
2021/06/10 10:13:09;;;;;;;8.85;6.70;;;;;;;24.94;39.41;100966.88;8745301;33;20234;-76
2021/06/10 10:18:12;;;;;;;6.45;5.50;;;;;;;24.99;39.89;100958.00;8744232;33;20811;-75
2021/06/10 10:23:17;;;;;;;8.93;6.93;;;;;;;24.76;40.00;100950.09;8745017;33;20302;-75
2021/06/10 10:28:19;;;;;;;8.73;6.68;;;;;;;24.97;40.30;100949.97;8744601;33;20223;-75
2021/06/10 10:33:24;;;;;;;9.50;6.53;;;;;;;25.76;38.85;100943.00;8745305;33;20263;-75
2021/06/10 10:38:34;;;;;;;7.50;6.55;;;;;;;26.21;38.05;100934.03;8764752;33;20231;-75
2021/06/10 10:43:39;;;;;;;8.32;6.60;;;;;;;26.63;36.80;100929.94;8723942;33;20789;-75
2021/06/10 10:48:43;;;;;;;6.50;5.78;;;;;;;26.36;36.51;100933.84;8743980;33;20277;-75
2021/06/10 10:53:53;;;;;;;5.28;4.53;;;;;;;26.54;35.57;100916.63;8744918;33;20259;-75
2021/06/10 10:59:17;;;;;;;7.43;5.40;;;;;;;26.62;37.39;100919.13;8744021;33;20729;-75
2021/06/10 11:04:51;;;;;;;6.70;5.80;;;;;;;25.95;38.98;100932.19;8719549;33;20325;-75
2021/06/10 11:09:55;;;;;;;6.53;5.63;;;;;;;27.01;37.29;100915.34;8743901;33;20270;-75
2021/06/10 11:15:00;;;;;;;6.47;4.90;;;;;;;25.61;38.46;100912.88;8743383;33;20231;-75
2021/06/10 11:20:06;;;;;;;7.00;5.47;;;;;;;27.16;36.21;100907.66;8739120;33;20231;-75
2021/06/10 11:25:15;;;;;;;4.40;3.97;;;;;;;27.13;37.42;100905.34;8737400;33;20309;-76
2021/06/10 11:30:26;;;;;;;5.10;4.35;;;;;;;26.98;37.27;100896.50;8738608;33;20736;-75
2021/06/10 11:35:36;;;;;;;5.72;4.55;;;;;;;26.81;36.46;100898.06;8735694;33;20219;-75
2021/06/10 11:40:44;;;;;;;5.40;4.15;;;;;;;27.18;35.74;100901.91;8737825;33;20231;-75
2021/06/10 11:45:48;;;;;;;5.57;4.53;;;;;;;28.46;34.70;100893.13;8734438;33;20224;-75
2021/06/10 11:50:51;;;;;;;5.18;4.68;;;;;;;27.54;34.97;100883.88;8713707;33;20293;-75
2021/06/10 11:55:56;;;;;;;3.90;3.60;;;;;;;28.30;34.99;100877.16;8738095;33;20258;-75
2021/06/10 12:01:10;;;;;;;4.95;4.45;;;;;;;27.88;33.95;100874.19;8738095;33;20252;-75
2021/06/10 12:06:16;;;;;;;4.45;3.30;;;;;;;28.06;34.70;100873.41;8737999;33;20226;-75
2021/06/10 12:11:20;;;;;;;5.60;4.10;;;;;;;28.31;33.37;100867.81;8738278;33;20224;-74
2021/06/10 12:16:22;;;;;;;4.65;4.13;;;;;;;27.55;34.83;100871.75;8737672;33;20260;-74
2021/06/10 12:21:27;;;;;;;4.63;4.10;;;;;;;26.82;35.48;100867.53;8738140;33;20236;-74
2021/06/10 12:26:31;;;;;;;5.50;3.53;;;;;;;27.98;33.60;100870.97;8738098;33;20277;-74
2021/06/10 12:31:37;;;;;;;4.85;3.58;;;;;;;29.61;30.69;100871.97;8737829;33;20227;-74
2021/06/10 12:36:42;;;;;;;3.50;3.20;;;;;;;29.98;29.75;100867.03;8735860;33;20806;-74
2021/06/10 12:41:48;;;;;;;4.15;3.17;;;;;;;27.76;31.96;100867.75;8736538;33;20223;-74
2021/06/10 12:46:53;;;;;;;3.85;3.42;;;;;;;29.46;31.02;100861.34;8736038;33;20224;-75
2021/06/10 12:51:56;;;;;;;3.10;2.90;;;;;;;29.54;29.84;100854.63;8712870;33;20318;-75
2021/06/10 12:57:00;;;;;;;3.47;2.88;;;;;;;29.43;29.35;100855.44;8737341;33;20255;-74
2021/06/10 13:02:12;;;;;;;3.25;2.85;;;;;;;30.76;26.80;100839.06;8737002;33;20250;-74
2021/06/10 13:07:30;;;;;;;3.20;2.50;;;;;;;30.10;27.31;100852.34;8736208;33;20256;-74
2021/06/10 13:12:45;;;;;;;4.25;3.13;;;;;;;28.65;29.39;100852.53;8736527;33;20908;-75
2021/06/10 13:17:56;;;;;;;3.53;3.10;;;;;;;28.93;29.88;100838.13;8736800;33;20223;-75
2021/06/10 13:23:01;;;;;;;3.17;2.90;;;;;;;29.23;30.17;100847.47;8736710;33;20736;-75
2021/06/10 13:28:14;;;;;;;3.40;3.10;;;;;;;30.23;28.00;100839.09;8736595;33;20232;-74
2021/06/10 13:33:21;;;;;;;3.25;2.78;;;;;;;30.23;27.31;100841.88;8737102;33;20228;-74
2021/06/10 13:38:23;;;;;;;3.40;3.10;;;;;;;30.31;28.95;100845.34;8736101;33;20921;-74
2021/06/10 13:43:33;;;;;;;4.03;3.13;;;;;;;31.61;27.42;100834.44;8735776;33;20243;-74
2021/06/10 13:48:36;;;;;;;4.40;3.40;;;;;;;31.83;28.31;100838.13;8736084;33;20280;-74
2021/06/10 13:53:42;;;;;;;3.63;3.33;;;;;;;31.87;26.79;100828.22;8737476;33;20223;-75
2021/06/10 13:58:46;;;;;;;3.85;2.92;;;;;;;31.24;29.44;100823.84;8742639;33;20886;-75
2021/06/10 14:03:49;;;;;;;4.40;3.33;;;;;;;30.76;28.09;100819.66;8737221;33;20243;-76
2021/06/10 14:08:51;;;;;;;3.83;3.17;;;;;;;30.59;28.85;100809.31;8735550;33;20219;-75
2021/06/10 14:13:56;;;;;;;4.53;3.42;;;;;;;28.70;30.76;100813.97;8736264;33;20296;-75
2021/06/10 14:19:02;;;;;;;5.65;3.70;;;;;;;30.07;30.53;100802.97;8735877;33;20769;-75
2021/06/10 14:24:06;;;;;;;4.95;3.70;;;;;;;31.13;29.09;100804.25;8736156;33;20290;-75
2021/06/10 14:29:15;;;;;;;4.20;3.80;;;;;;;33.22;26.65;100797.00;8735493;33;20232;-75
2021/06/10 14:34:19;;;;;;;7.10;3.90;;;;;;;31.70;29.25;100808.78;8734984;33;20231;-75
2021/06/10 14:39:21;;;;;;;4.85;3.72;;;;;;;32.11;26.48;100789.06;8736283;33;20238;-75
2021/06/10 14:44:25;;;;;;;5.10;3.22;;;;;;;30.72;29.23;100790.72;8735513;33;20216;-75
2021/06/10 14:49:28;;;;;;;3.67;3.38;;;;;;;29.82;28.59;100784.72;8736013;33;20743;-75
2021/06/10 14:54:31;;;;;;;5.18;3.63;;;;;;;31.45;27.79;100784.22;8738725;33;20227;-76
2021/06/10 14:59:35;;;;;;;4.50;4.03;;;;;;;30.88;28.15;100776.06;8740481;33;20226;-75
2021/06/10 15:04:38;;;;;;;3.60;3.30;;;;;;;32.17;28.18;100774.16;8739946;33;20743;-75
2021/06/10 15:09:40;;;;;;;5.80;3.35;;;;;;;32.85;26.94;100775.47;8740497;33;20231;-74
2021/06/10 15:14:44;;;;;;;2.95;2.75;;;;;;;33.29;26.35;100761.41;8740827;33;20254;-74
2021/06/10 15:19:47;;;;;;;4.07;3.20;;;;;;;32.01;28.51;100762.84;8741513;33;20227;-74
2021/06/10 15:24:50;;;;;;;4.00;3.15;;;;;;;30.49;29.63;100759.25;8739577;33;20227;-73
2021/06/10 15:29:54;;;;;;;3.63;3.20;;;;;;;31.49;27.30;100754.06;8739763;33;20223;-75
2021/06/10 15:34:56;;;;;;;3.75;3.33;;;;;;;31.61;26.72;100754.78;8738871;33;20829;-74
2021/06/10 15:40:00;;;;;;;4.68;2.80;;;;;;;31.27;27.24;100746.50;8739311;33;20216;-74
2021/06/10 15:45:06;;;;;;;4.00;3.53;;;;;;;31.57;28.31;100745.28;8738823;33;20274;-75
2021/06/10 15:50:10;;;;;;;3.53;3.22;;;;;;;32.50;25.79;100747.28;8739462;33;20220;-75
2021/06/10 15:55:13;;;;;;;3.67;3.13;;;;;;;32.38;26.14;100753.00;8738484;33;20243;-75
2021/06/10 16:00:18;;;;;;;3.42;3.13;;;;;;;32.94;25.49;100747.19;8739261;33;20285;-75
2021/06/10 16:05:23;;;;;;;4.13;3.25;;;;;;;34.32;23.50;100737.72;8713997;33;20289;-75
2021/06/10 16:10:26;;;;;;;3.83;3.10;;;;;;;34.15;23.29;100737.13;8744501;33;20224;-76
2021/06/10 16:15:30;;;;;;;4.63;2.90;;;;;;;33.76;24.20;100740.25;8715414;33;20223;-75
2021/06/10 16:20:34;;;;;;;5.55;3.10;;;;;;;32.85;25.22;100739.31;8738800;33;20323;-75
2021/06/10 16:25:37;;;;;;;3.67;3.20;;;;;;;33.20;24.61;100737.97;8737981;33;20268;-74
2021/06/10 16:30:41;;;;;;;3.38;2.92;;;;;;;36.02;21.57;100730.09;8737689;33;20223;-75
2021/06/10 16:35:44;;;;;;;3.50;3.13;;;;;;;39.78;18.78;100732.50;8737507;33;20247;-74
2021/06/10 16:40:46;;;;;;;3.10;2.55;;;;;;;39.98;18.57;100720.78;8713271;33;20714;-74
2021/06/10 16:45:51;;;;;;;3.30;3.00;;;;;;;40.30;17.77;100725.44;8736992;33;20298;-74
2021/06/10 16:50:54;;;;;;;4.88;3.10;;;;;;;40.17;18.38;100717.03;8736799;33;20219;-74
2021/06/10 16:55:57;;;;;;;2.83;2.53;;;;;;;40.57;18.07;100708.78;8727534;33;20359;-71
2021/06/10 17:01:09;;;;;;;5.88;2.95;;;;;;;40.14;18.46;100701.59;8709213;33;20227;-73
2021/06/10 17:06:12;;;;;;;3.60;3.30;;;;;;;40.59;18.13;100701.69;8736015;33;20219;-74
2021/06/10 17:11:15;;;;;;;2.88;2.67;;;;;;;40.64;17.38;100692.28;8736386;33;21496;-73
2021/06/10 17:16:19;;;;;;;2.88;2.65;;;;;;;40.45;17.05;100689.63;8735148;33;20325;-74
2021/06/10 17:21:22;;;;;;;3.08;2.80;;;;;;;39.18;18.01;100689.22;8733265;33;20231;-74
2021/06/10 17:26:25;;;;;;;2.88;2.67;;;;;;;39.42;19.06;100686.25;8735701;33;20230;-73
2021/06/10 17:31:29;;;;;;;2.40;2.20;;;;;;;40.26;17.88;100678.56;8735893;33;20829;-74
2021/06/10 17:36:33;;;;;;;3.05;2.80;;;;;;;40.56;17.63;100685.44;8735965;33;20293;-74
2021/06/10 17:41:36;;;;;;;3.00;2.70;;;;;;;40.64;17.95;100686.66;8735093;33;20322;-73
2021/06/10 17:46:40;;;;;;;3.83;2.92;;;;;;;37.66;19.34;100680.06;8731758;33;20219;-74
2021/06/10 17:51:43;;;;;;;2.92;2.20;;;;;;;33.83;22.83;100675.97;8735433;33;20258;-73
2021/06/10 17:56:53;;;;;;;2.85;2.40;;;;;;;31.56;25.54;100682.53;8735398;33;20227;-74
2021/06/10 18:01:57;;;;;;;2.60;2.40;;;;;;;29.67;27.02;100681.94;8735480;33;20235;-73
2021/06/10 18:07:00;;;;;;;3.00;2.70;;;;;;;28.68;29.20;100691.75;8734587;33;20223;-73
2021/06/10 18:12:03;;;;;;;3.75;2.65;;;;;;;27.94;30.67;100674.53;8736034;33;20842;-73
2021/06/10 18:17:07;;;;;;;4.90;2.60;;;;;;;27.34;32.23;100671.59;8736105;33;20227;-74
2021/06/10 18:22:10;;;;;;;3.72;2.90;;;;;;;26.92;33.39;100679.66;8735363;33;20230;-73
2021/06/10 18:27:13;;;;;;;5.00;3.00;;;;;;;26.60;33.99;100665.88;8736599;33;20216;-73
2021/06/10 18:32:16;;;;;;;3.90;2.65;;;;;;;26.27;35.65;100666.13;8740374;33;20274;-73
2021/06/10 18:37:19;;;;;;;6.00;2.97;;;;;;;25.96;35.22;100667.75;8715703;33;20227;-73
2021/06/10 18:42:22;;;;;;;3.50;3.20;;;;;;;25.67;35.75;100655.44;8740068;33;20224;-73
2021/06/10 18:47:26;;;;;;;5.63;3.55;;;;;;;25.44;36.83;100664.13;8732021;33;20219;-73
2021/06/10 18:56:16;;;;;;;2.78;2.58;;;;;;;24.89;37.60;100671.81;8948033;32;20638;-74
2021/06/10 19:01:20;;;;;;;3.58;3.03;;;;;;;24.82;37.81;100669.06;10511200;28;20250;-75
2021/06/10 19:06:22;;;;;;;5.80;3.22;;;;;;;24.49;38.11;100663.53;10506265;28;20231;-73
2021/06/10 19:11:27;;;;;;;3.50;3.20;;;;;;;24.20;37.65;100662.00;10506360;28;20318;-73
2021/06/10 19:16:29;;;;;;;4.38;3.45;;;;;;;24.12;37.94;100663.03;10506403;28;20235;-74
2021/06/10 19:21:34;;;;;;;4.30;3.65;;;;;;;23.99;38.83;100673.97;10506415;28;20247;-73
2021/06/10 19:26:38;;;;;;;4.80;3.00;;;;;;;23.53;38.96;100669.97;10505641;28;20235;-74
2021/06/10 19:31:41;;;;;;;4.18;2.78;;;;;;;23.40;38.02;100675.38;10507219;28;20611;-76
2021/06/10 19:41:52;;;;;;;3.60;3.10;;;;;;;22.79;38.64;100673.22;8738874;32;20593;-76
2021/06/10 19:46:54;;;;;;;3.53;3.20;;;;;;;22.84;37.75;100678.09;8764278;33;20262;-76
2021/06/10 19:51:57;;;;;;;4.85;3.28;;;;;;;22.50;37.92;100679.69;8760390;33;20238;-75
2021/06/10 19:57:01;;;;;;;3.53;3.13;;;;;;;22.45;37.52;100683.00;8759485;33;20724;-76
2021/06/10 20:02:04;;;;;;;3.47;2.85;;;;;;;22.38;37.14;100690.28;8760063;33;20314;-75
2021/06/10 20:07:07;;;;;;;5.20;2.90;;;;;;;22.42;36.79;100688.00;8758835;33;20231;-75
2021/06/10 20:12:11;;;;;;;3.15;2.90;;;;;;;22.40;37.59;100681.88;8758793;33;20787;-75
2021/06/10 20:17:14;;;;;;;3.60;3.30;;;;;;;22.38;36.71;100686.69;8756996;33;20276;-75
2021/06/10 20:22:18;;;;;;;3.17;2.67;;;;;;;22.30;36.89;100688.50;8758603;33;20227;-77
2021/06/10 20:32:43;;;;;;;5.15;3.15;;;;;;;22.17;39.57;100690.25;8781037;33;20638;-75
2021/06/10 20:37:46;;;;;;;3.20;2.90;;;;;;;21.99;41.06;100696.13;8759508;33;20308;-78
2021/06/10 20:42:52;;;;;;;4.65;3.28;;;;;;;21.87;42.09;100690.31;8760504;33;20223;-77
2021/06/10 20:47:55;;;;;;;6.60;3.72;;;;;;;21.87;43.29;100704.84;8741701;33;20238;-77
2021/06/10 20:52:59;;;;;;;3.80;3.50;;;;;;;21.70;43.22;100697.88;8741547;33;20228;-78
2021/06/10 20:58:03;;;;;;;4.35;3.78;;;;;;;21.54;42.78;100698.91;8747052;33;20224;-77
2021/06/10 21:03:06;;;;;;;4.72;3.85;;;;;;;21.59;43.44;100699.19;8744099;33;20261;-77
2021/06/10 21:08:09;;;;;;;5.75;4.10;;;;;;;21.68;44.51;100698.03;8744370;33;26605;-78
2021/06/10 21:13:14;;;;;;;4.07;3.67;;;;;;;21.68;43.16;100708.97;8738958;33;20235;-77
2021/06/10 21:18:17;;;;;;;5.32;3.92;;;;;;;21.53;41.95;100705.41;8741407;33;20901;-77
2021/06/10 21:23:20;;;;;;;4.15;3.80;;;;;;;21.54;42.01;100711.72;8739945;33;20223;-77
2021/06/10 21:28:24;;;;;;;5.35;4.05;;;;;;;21.59;41.50;100712.00;8741085;33;20224;-76
2021/06/10 21:33:27;;;;;;;9.27;4.30;;;;;;;21.70;41.74;100708.78;8743068;33;20231;-77
2021/06/10 21:38:29;;;;;;;5.80;4.30;;;;;;;21.60;41.76;100709.06;8754003;33;20234;-77
2021/06/10 21:43:34;;;;;;;4.18;3.78;;;;;;;21.37;43.12;100719.25;8753584;33;20239;-77
2021/06/10 21:48:36;;;;;;;5.00;4.13;;;;;;;21.08;43.80;100714.59;8740690;33;20235;-77
2021/06/10 21:53:40;;;;;;;5.85;3.72;;;;;;;20.98;45.10;100712.97;8739765;33;20239;-77
2021/06/10 21:58:44;;;;;;;6.88;4.28;;;;;;;20.74;45.83;100707.72;8740179;33;20629;-77
2021/06/10 22:03:47;;;;;;;5.82;4.85;;;;;;;20.63;45.73;100713.59;8743521;33;20236;-77
2021/06/10 22:08:50;;;;;;;5.82;4.10;;;;;;;20.50;46.38;100706.00;8743954;33;20281;-77
2021/06/10 22:13:54;;;;;;;5.38;4.40;;;;;;;20.33;46.98;100708.00;8747219;33;20235;-78
2021/06/10 22:18:56;;;;;;;4.82;4.35;;;;;;;20.28;47.25;100703.06;8747928;33;20228;-77
2021/06/10 22:23:59;;;;;;;6.68;4.80;;;;;;;20.21;47.94;100707.53;8750372;33;20257;-77
2021/06/10 22:29:03;;;;;;;6.53;4.90;;;;;;;20.19;48.36;100700.56;8770153;33;20294;-77
2021/06/10 22:34:06;;;;;;;6.38;4.50;;;;;;;20.02;49.01;100695.22;8768733;33;21582;-78
2021/06/10 22:39:16;;;;;;;7.13;5.53;;;;;;;19.92;49.79;100696.47;8746463;33;20605;-77
2021/06/10 22:44:20;;;;;;;6.63;5.82;;;;;;;19.88;50.72;100702.28;8753455;33;20232;-78
2021/06/10 22:49:25;;;;;;;8.23;5.68;;;;;;;19.88;50.54;100698.69;8748342;33;20228;-77
2021/06/10 22:54:27;;;;;;;8.13;6.38;;;;;;;19.75;51.70;100709.31;8742107;33;20231;-77
2021/06/10 22:59:31;;;;;;;8.45;6.18;;;;;;;19.51;52.45;100702.03;8742376;33;20235;-77
2021/06/10 23:04:34;;;;;;;7.63;6.05;;;;;;;19.41;53.00;100689.44;8743973;33;20226;-78
2021/06/10 23:09:36;;;;;;;9.15;6.70;;;;;;;19.43;52.85;100697.47;8743089;33;20258;-76
2021/06/10 23:14:41;;;;;;;9.85;6.95;;;;;;;19.32;53.36;100695.13;8741145;33;20255;-78
2021/06/10 23:19:43;;;;;;;7.18;6.25;;;;;;;19.21;53.79;100693.59;8752820;33;20242;-78
2021/06/10 23:24:46;;;;;;;10.40;6.40;;;;;;;19.11;53.76;100698.38;8750615;33;21474;-76
2021/06/10 23:29:50;;;;;;;6.80;6.10;;;;;;;18.96;54.13;100698.25;8739747;33;20231;-78
2021/06/10 23:34:52;;;;;;;9.93;6.10;;;;;;;18.88;53.93;100692.81;8737814;33;20219;-77
2021/06/10 23:39:55;;;;;;;6.15;5.32;;;;;;;18.84;54.02;100689.59;8737961;33;20228;-78